Time,TemperatureF,DewpointF,PressureIn,WindDirection,WindDirectionDegrees,WindSpeedMPH,WindSpeedGustMPH,Humidity,HourlyPrecipIn,Conditions,Clouds,dailyrainin,SoftwareType,DateUTC
2013-07-24 00:15:00,70.0,66.6,29.85,WSW,240,0.0,0.0,89,0.00,CLR,,0.00,WeatherDisplay:10.37,2013-07-24 04:15:00,
2013-07-24 00:30:00,69.8,66.7,29.86,WSW,240,0.0,1.0,90,0.00,CLR,,0.00,WeatherDisplay:10.37,2013-07-24 04:30:00,
2013-07-24 00:45:00,69.6,66.5,29.86,WSW,240,0.0,1.0,90,0.00,CLR,,0.00,WeatherDisplay:10.37,2013-07-24 04:45:00,
2013-07-24 01:00:00,69.4,66.7,29.86,WSW,240,0.0,0.0,91,0.00,CLR,,0.00,WeatherDisplay:10.37,2013-07-24 05:00:00,
2013-07-24 01:15:00,69.2,66.1,29.86,WSW,240,0.0,0.0,90,0.00,CLR,,0.00,WeatherDisplay:10.37,2013-07-24 05:15:00,
2013-07-24 01:30:00,68.9,66.2,29.86,WSW,240,0.0,0.0,91,0.00,CLR,,0.00,WeatherDisplay:10.37,2013-07-24 05:30:00,
2013-07-24 01:45:00,68.6,65.9,29.85,WSW,240,0.0,0.0,91,0.00,CLR,,0.00,WeatherDisplay:10.37,2013-07-24 05:45:00,
2013-07-24 02:00:00,68.3,65.6,29.85,WSW,240,0.0,0.0,91,0.00,CLR,,0.00,WeatherDisplay:10.37,2013-07-24 06:00:00,
2013-07-24 02:15:00,68.1,65.7,29.84,WSW,240,0.0,0.0,92,0.00,CLR,,0.00,WeatherDisplay:10.37,2013-07-24 06:15:00,
2013-07-24 02:30:00,68.0,65.6,29.84,WSW,240,0.0,0.0,92,0.00,CLR,,0.00,WeatherDisplay:10.37,2013-07-24 06:30:00,
2013-07-24 02:45:00,67.8,65.4,29.83,WSW,240,0.0,0.0,92,0.00,CLR,,0.00,WeatherDisplay:10.37,2013-07-24 06:45:00,
2013-07-24 03:00:00,67.8,65.7,29.83,WSW,240,0.0,0.0,93,0.00,CLR,,0.00,WeatherDisplay:10.37,2013-07-24 07:00:00,
2013-07-24 03:15:00,67.6,65.5,29.83,WSW,240,0.0,0.0,93,0.00,CLR,,0.00,WeatherDisplay:10.37,2013-07-24 07:15:00,
2013-07-24 03:30:00,67.5,65.4,29.83,WSW,240,0.0,0.0,93,0.00,CLR,,0.00,WeatherDisplay:10.37,2013-07-24 07:30:00,
2013-07-24 03:45:00,67.3,65.2,29.82,WSW,240,0.0,0.0,93,0.00,CLR,,0.00,WeatherDisplay:10.37,2013-07-24 07:45:00,
2013-07-24 04:00:00,67.0,64.9,29.82,WSW,240,0.0,0.0,93,0.00,CLR,,0.00,WeatherDisplay:10.37,2013-07-24 08:00:00,
2013-07-24 04:15:00,66.7,64.9,29.81,WSW,240,0.0,0.0,94,0.00,CLR,,0.00,WeatherDisplay:10.37,2013-07-24 08:15:00,
2013-07-24 04:30:00,66.6,64.8,29.81,WSW,240,0.0,0.0,94,0.00,CLR,,0.00,WeatherDisplay:10.37,2013-07-24 08:30:00,
2013-07-24 04:45:00,66.3,64.5,29.81,WSW,240,0.0,0.0,94,0.00,CLR,,0.00,WeatherDisplay:10.37,2013-07-24 08:45:00,
2013-07-24 05:00:00,66.0,64.2,29.82,WSW,240,0.0,0.0,94,0.00,CLR,,0.00,WeatherDisplay:10.37,2013-07-24 09:00:00,
2013-07-24 05:15:00,65.8,63.7,29.82,WSW,240,0.0,0.0,93,0.00,CLR,,0.00,WeatherDisplay:10.37,2013-07-24 09:15:00,
2013-07-24 05:30:00,65.6,63.8,29.82,WSW,240,0.0,0.0,94,0.00,CLR,,0.00,WeatherDisplay:10.37,2013-07-24 09:30:00,
2013-07-24 05:45:00,65.4,63.6,29.82,WSW,240,0.0,0.0,94,0.00,CLR,,0.00,WeatherDisplay:10.37,2013-07-24 09:45:00,
2013-07-24 06:00:00,65.3,63.5,29.82,WSW,240,0.0,0.0,94,0.00,CLR,,0.00,WeatherDisplay:10.37,2013-07-24 10:00:00,
2013-07-24 06:15:00,65.1,63.3,29.83,WSW,240,0.0,0.0,94,0.00,CLR,,0.00,WeatherDisplay:10.37,2013-07-24 10:15:00,
2013-07-24 06:30:00,65.0,63.2,29.84,WSW,240,0.0,0.0,94,0.00,CLR,,0.00,WeatherDisplay:10.37,2013-07-24 10:30:00,
2013-07-24 06:45:00,65.1,63.3,29.85,WSW,240,0.0,0.0,94,0.00,CLR,,0.00,WeatherDisplay:10.37,2013-07-24 10:45:00,
2013-07-24 07:00:00,65.2,63.4,29.85,WSW,240,0.0,0.0,94,0.00,CLR,,0.00,WeatherDisplay:10.37,2013-07-24 11:00:00,
2013-07-24 07:15:00,65.3,63.5,29.84,WSW,240,0.0,0.0,94,0.00,CLR,,0.00,WeatherDisplay:10.37,2013-07-24 11:15:00,
2013-07-24 07:30:00,65.7,64.2,29.85,WSW,240,0.0,0.0,95,0.00,CLR,,0.00,WeatherDisplay:10.37,2013-07-24 11:30:00,
2013-07-24 07:45:00,66.8,65.3,29.85,WSW,240,0.0,0.0,95,0.00,CLR,,0.00,WeatherDisplay:10.37,2013-07-24 11:45:00,
2013-07-24 08:00:00,68.2,67.1,29.86,WSW,247,2.0,5.0,96,0.00,CLR,,0.00,WeatherDisplay:10.37,2013-07-24 12:00:00,
2013-07-24 08:15:00,70.1,68.0,29.88,WNW,295,1.0,5.0,93,0.00,CLR,,0.00,WeatherDisplay:10.37,2013-07-24 12:15:00,
2013-07-24 08:30:00,72.0,68.3,29.88,NW,325,1.0,5.0,88,0.00,CLR,,0.00,WeatherDisplay:10.37,2013-07-24 12:30:00,
2013-07-24 08:45:00,74.1,69.0,29.89,NNW,333,0.0,6.0,84,0.00,CLR,,0.00,WeatherDisplay:10.37,2013-07-24 12:45:00,
2013-07-24 09:00:00,74.5,69.0,29.88,NW,326,0.0,3.0,83,0.00,CLR,,0.00,WeatherDisplay:10.37,2013-07-24 13:00:00,
2013-07-24 09:15:00,76.3,70.1,29.88,NW,319,2.0,5.0,81,0.00,CLR,,0.00,WeatherDisplay:10.37,2013-07-24 13:15:00,
2013-07-24 09:30:00,78.4,70.6,29.88,NNW,344,1.0,5.0,77,0.00,CLR,,0.00,WeatherDisplay:10.37,2013-07-24 13:30:00,
2013-07-24 09:45:00,79.1,70.1,29.88,NNW,345,0.0,4.0,74,0.00,CLR,,0.00,WeatherDisplay:10.37,2013-07-24 13:45:00,
2013-07-24 10:00:00,80.0,69.7,29.86,NW,326,0.0,5.0,71,0.00,CLR,,0.00,WeatherDisplay:10.37,2013-07-24 14:00:00,
2013-07-24 10:15:00,82.0,69.5,29.87,WSW,246,1.0,4.0,66,0.00,CLR,,0.00,WeatherDisplay:10.37,2013-07-24 14:15:00,
2013-07-24 10:30:00,81.9,69.4,29.87,WSW,251,2.0,5.0,66,0.00,CLR,,0.00,WeatherDisplay:10.37,2013-07-24 14:30:00,
2013-07-24 10:45:00,82.0,70.4,29.88,NW,308,2.0,8.0,68,0.00,CLR,,0.00,WeatherDisplay:10.37,2013-07-24 14:45:00,
2013-07-24 11:00:00,82.7,69.3,29.87,WNW,296,2.0,7.0,64,0.00,CLR,,0.00,WeatherDisplay:10.37,2013-07-24 15:00:00,
2013-07-24 11:15:00,83.6,69.2,29.87,NW,314,5.0,8.0,62,0.00,CLR,,0.00,WeatherDisplay:10.37,2013-07-24 15:15:00,
2013-07-24 11:30:00,83.6,68.7,29.87,WNW,290,2.0,7.0,61,0.00,CLR,,0.00,WeatherDisplay:10.37,2013-07-24 15:30:00,
2013-07-24 11:45:00,84.6,69.7,29.87,NW,314,2.0,7.0,61,0.00,CLR,,0.00,WeatherDisplay:10.37,2013-07-24 15:45:00,
2013-07-24 12:00:00,85.3,70.3,29.87,NNW,342,3.0,8.0,61,0.00,CLR,,0.00,WeatherDisplay:10.37,2013-07-24 16:00:00,
2013-07-24 12:15:00,85.6,68.6,29.87,NNW,331,3.0,8.0,57,0.00,CLR,,0.00,WeatherDisplay:10.37,2013-07-24 16:15:00,
2013-07-24 12:30:00,86.0,69.0,29.87,NW,326,3.0,7.0,57,0.00,CLR,,0.00,WeatherDisplay:10.37,2013-07-24 16:30:00,
2013-07-24 12:45:00,87.1,68.4,29.87,NW,319,2.0,10.0,54,0.00,CLR,,0.00,WeatherDisplay:10.37,2013-07-24 16:45:00,
2013-07-24 13:00:00,87.2,69.6,29.86,NW,326,3.0,8.0,56,0.00,CLR,,0.00,WeatherDisplay:10.37,2013-07-24 17:00:00,
2013-07-24 13:15:00,87.1,69.0,29.86,NNW,346,3.0,7.0,55,0.00,CLR,,0.00,WeatherDisplay:10.37,2013-07-24 17:15:00,
2013-07-24 13:30:00,87.1,70.0,29.86,WNW,288,3.0,9.0,57,0.00,CLR,,0.00,WeatherDisplay:10.37,2013-07-24 17:30:00,
2013-07-24 13:45:00,87.6,69.4,29.86,NW,323,5.0,10.0,55,0.00,CLR,,0.00,WeatherDisplay:10.37,2013-07-24 17:45:00,
2013-07-24 14:00:00,88.5,70.3,29.85,NNW,330,3.0,6.0,55,0.00,CLR,,0.00,WeatherDisplay:10.37,2013-07-24 18:00:00,
2013-07-24 14:15:00,87.3,70.2,29.84,NNW,341,3.0,6.0,57,0.00,CLR,,0.00,WeatherDisplay:10.37,2013-07-24 18:15:00,
2013-07-24 14:30:00,87.4,70.8,29.84,North,349,1.0,6.0,58,0.00,CLR,,0.00,WeatherDisplay:10.37,2013-07-24 18:30:00,
2013-07-24 14:45:00,88.8,70.0,29.84,NNW,346,1.0,6.0,54,0.00,CLR,,0.00,WeatherDisplay:10.37,2013-07-24 18:45:00,
2013-07-24 15:00:00,87.4,69.8,29.84,NW,321,1.0,8.0,56,0.00,CLR,,0.00,WeatherDisplay:10.37,2013-07-24 19:00:00,
2013-07-24 15:15:00,87.6,69.4,29.84,NW,322,2.0,7.0,55,0.00,CLR,,0.00,WeatherDisplay:10.37,2013-07-24 19:15:00,
2013-07-24 15:30:00,88.1,69.9,29.84,NNW,338,2.0,6.0,55,0.00,SCT,,0.00,WeatherDisplay:10.37,2013-07-24 19:30:00,
2013-07-24 15:45:00,86.1,70.1,29.84,NNW,342,1.0,6.0,59,0.00,SCT,,0.00,WeatherDisplay:10.37,2013-07-24 19:45:00,
2013-07-24 16:00:00,85.3,70.8,29.83,NW,322,1.0,6.0,62,0.00,SCT,,0.00,WeatherDisplay:10.37,2013-07-24 20:00:00,
2013-07-24 16:15:00,86.6,71.5,29.82,NW,318,2.0,6.0,61,0.00,SCT,,0.00,WeatherDisplay:10.37,2013-07-24 20:15:00,
2013-07-24 16:30:00,86.9,70.3,29.82,NW,324,2.0,7.0,58,0.00,SCT,,0.00,WeatherDisplay:10.37,2013-07-24 20:30:00,
2013-07-24 16:45:00,87.1,70.5,29.82,NW,306,3.0,12.0,58,0.00,SCT,,0.00,WeatherDisplay:10.37,2013-07-24 20:45:00,
2013-07-24 17:00:00,87.0,69.4,29.82,NW,317,5.0,8.0,56,0.00,SCT,,0.00,WeatherDisplay:10.37,2013-07-24 21:00:00,
2013-07-24 17:15:00,87.2,69.6,29.82,NW,311,1.0,6.0,56,0.00,SCT,,0.00,WeatherDisplay:10.37,2013-07-24 21:15:00,
2013-07-24 17:30:00,86.8,69.7,29.82,WNW,300,1.0,6.0,57,0.00,CLR,,0.00,WeatherDisplay:10.37,2013-07-24 21:30:00,
2013-07-24 17:45:00,86.5,70.0,29.82,NNW,328,0.0,6.0,58,0.00,CLR,,0.00,WeatherDisplay:10.37,2013-07-24 21:45:00,
2013-07-24 18:00:00,86.1,68.6,29.82,NW,323,2.0,7.0,56,0.00,CLR,,0.00,WeatherDisplay:10.37,2013-07-24 22:00:00,
2013-07-24 18:15:00,85.4,69.9,29.82,North,354,2.0,6.0,60,0.00,CLR,,0.00,WeatherDisplay:10.37,2013-07-24 22:15:00,
2013-07-24 18:30:00,85.6,69.1,29.82,NW,319,3.0,7.0,58,0.00,CLR,,0.00,WeatherDisplay:10.37,2013-07-24 22:30:00,
2013-07-24 18:45:00,85.0,68.1,29.81,NNW,345,2.0,6.0,57,0.00,CLR,,0.00,WeatherDisplay:10.37,2013-07-24 22:45:00,
2013-07-24 19:00:00,84.1,68.2,29.82,NNW,337,1.0,7.0,59,0.00,CLR,,0.00,WeatherDisplay:10.37,2013-07-24 23:00:00,
2013-07-24 19:15:00,83.8,67.9,29.82,NNW,332,2.0,5.0,59,0.00,CLR,,0.00,WeatherDisplay:10.37,2013-07-24 23:15:00,
2013-07-24 19:30:00,83.1,68.2,29.83,NW,323,2.0,6.0,61,0.00,CLR,,0.00,WeatherDisplay:10.37,2013-07-24 23:30:00,
2013-07-24 19:45:00,82.0,68.2,29.84,NNE,15,1.0,5.0,63,0.00,CLR,,0.00,WeatherDisplay:10.37,2013-07-24 23:45:00,
2013-07-24 20:00:00,81.5,68.1,29.84,North,10,1.0,5.0,64,0.00,CLR,,0.00,WeatherDisplay:10.37,2013-07-25 00:00:00,
2013-07-24 20:15:00,80.9,67.6,29.85,NNE,15,0.0,4.0,64,0.00,CLR,,0.00,WeatherDisplay:10.37,2013-07-25 00:15:00,
2013-07-24 20:30:00,79.9,68.4,29.85,NNE,15,0.0,1.0,68,0.00,CLR,,0.00,WeatherDisplay:10.37,2013-07-25 00:30:00,
2013-07-24 20:45:00,78.5,67.9,29.85,NNE,15,0.0,1.0,70,0.00,CLR,,0.00,WeatherDisplay:10.37,2013-07-25 00:45:00,
2013-07-24 21:00:00,77.4,68.1,29.86,NNE,15,0.0,0.0,73,0.00,CLR,,0.00,WeatherDisplay:10.37,2013-07-25 01:00:00,
2013-07-24 21:15:00,76.5,68.4,29.87,NNE,15,0.0,0.0,76,0.00,CLR,,0.00,WeatherDisplay:10.37,2013-07-25 01:15:00,
2013-07-24 21:30:00,75.5,67.8,29.88,NNE,15,0.0,0.0,77,0.00,CLR,,0.00,WeatherDisplay:10.37,2013-07-25 01:30:00,
2013-07-24 21:45:00,74.8,67.5,29.88,NNE,15,0.0,0.0,78,0.00,CLR,,0.00,WeatherDisplay:10.37,2013-07-25 01:45:00,
2013-07-24 22:00:00,74.2,67.6,29.89,NNE,15,0.0,0.0,80,0.00,CLR,,0.00,WeatherDisplay:10.37,2013-07-25 02:00:00,
2013-07-24 22:15:00,74.1,68.3,29.90,NNE,15,0.0,1.0,82,0.00,CLR,,0.00,WeatherDisplay:10.37,2013-07-25 02:15:00,
2013-07-24 22:30:00,74.1,67.9,29.91,NNE,15,1.0,4.0,81,0.00,OVC,,0.00,WeatherDisplay:10.37,2013-07-25 02:30:00,
2013-07-24 22:45:00,74.4,67.1,29.91,South,179,0.0,9.0,78,0.00,OVC,,0.00,WeatherDisplay:10.37,2013-07-25 02:45:00,
2013-07-24 23:00:00,74.5,67.6,29.92,SSE,153,0.0,5.0,79,0.00,OVC,,0.00,WeatherDisplay:10.37,2013-07-25 03:00:00,
2013-07-24 23:30:00,73.7,66.8,29.92,SSE,166,0.0,8.0,79,0.00,BKN,,0.00,WeatherDisplay:10.37,2013-07-25 03:30:00,
2013-07-24 23:45:00,73.2,66.3,29.93,SE,136,1.0,4.0,79,0.00,BKN,,0.00,WeatherDisplay:10.37,2013-07-25 03:45:00,